Time;durP1;ratioP1;P1;durP2;ratioP2;P2;SDS_P1;SDS_P2;PMS_P1;PMS_P2;Temp;Humidity;BMP_temperature;BMP_pressure;BME280_temperature;BME280_humidity;BME280_pressure;Samples;Min_cycle;Max_cycle;Signal;HPM_P1;HPM_P2
2021/03/27 00:01:39;;;;;;;9.13;7.70;;;8.70;93.50;16.50;99677.00;;;;5004142;28;20276;-69
2021/03/27 00:04:25;;;;;;;8.35;7.00;;;8.70;93.50;16.30;99684.00;;;;5018888;28;20186;-69
2021/03/27 00:07:01;;;;;;;9.70;6.93;;;8.70;93.50;16.60;99683.00;;;;5034650;28;20201;-69
2021/03/27 00:09:54;;;;;;;7.95;6.80;;;8.70;93.50;16.50;99677.00;;;;5017583;28;20197;-69
2021/03/27 00:12:46;;;;;;;8.10;6.80;;;8.70;93.50;16.50;99677.00;;;;5007765;28;20696;-70
2021/03/27 00:15:35;;;;;;;10.10;7.30;;;8.70;93.60;16.50;99679.00;;;;5017363;28;20241;-69
2021/03/27 00:19:02;;;;;;;8.57;6.80;;;8.70;93.50;16.70;99682.00;;;;5002245;28;20550;-70
2021/03/27 00:21:38;;;;;;;8.60;6.80;;;8.60;93.50;16.50;99680.00;;;;4950096;28;20213;-70
2021/03/27 00:24:53;;;;;;;8.80;6.28;;;8.70;93.60;16.60;99683.00;;;;5005057;28;20198;-70
2021/03/27 00:27:22;;;;;;;7.80;6.38;;;8.60;93.50;16.50;99681.00;;;;5032837;28;20226;-70
2021/03/27 00:29:52;;;;;;;9.82;7.90;;;8.70;93.60;16.40;99684.00;;;;5001696;28;20193;-70
2021/03/27 00:32:22;;;;;;;9.55;6.85;;;8.60;93.50;16.50;99682.00;;;;5001143;28;20229;-70
2021/03/27 00:34:54;;;;;;;7.82;6.35;;;8.60;93.40;16.40;99682.00;;;;5001450;28;20182;-69
2021/03/27 00:37:23;;;;;;;8.30;7.07;;;8.60;93.50;16.60;99685.00;;;;5001534;28;20252;-69
2021/03/27 00:39:55;;;;;;;8.77;6.95;;;8.60;93.50;16.50;99672.00;;;;4984882;28;20200;-69
2021/03/27 00:42:26;;;;;;;8.55;6.65;;;8.60;93.50;16.60;99690.00;;;;5001222;28;20803;-69
2021/03/27 00:45:10;;;;;;;9.05;7.05;;;8.60;93.50;16.60;99692.00;;;;5017613;28;20269;-69
2021/03/27 00:47:46;;;;;;;8.40;6.90;;;8.60;93.50;16.40;99685.00;;;;5017899;28;20610;-69
2021/03/27 00:50:37;;;;;;;8.75;6.65;;;8.60;93.50;16.50;99680.00;;;;5002997;28;20193;-69
2021/03/27 00:53:19;;;;;;;9.63;7.22;;;8.60;93.50;16.50;99673.00;;;;5033471;28;20174;-69
2021/03/27 00:56:00;;;;;;;8.85;7.55;;;8.60;93.50;16.60;99676.00;;;;5002505;28;20218;-69
2021/03/27 00:59:05;;;;;;;9.43;7.85;;;8.60;93.50;16.40;99667.00;;;;5033467;28;20216;-69
2021/03/27 01:01:38;;;;;;;8.90;7.50;;;8.60;93.50;16.40;99674.00;;;;5011575;28;20227;-69
2021/03/27 01:04:04;;;;;;;9.65;7.05;;;8.60;93.50;16.50;99672.00;;;;5000681;28;20178;-69
2021/03/27 01:06:38;;;;;;;9.63;7.20;;;8.60;93.50;16.60;99669.00;;;;5015901;28;20550;-69
2021/03/27 01:09:05;;;;;;;9.52;7.60;;;8.60;93.50;16.60;99619.00;;;;5000879;28;20543;-70
2021/03/27 01:11:38;;;;;;;9.80;7.72;;;8.60;93.50;16.50;99662.00;;;;5016173;28;20228;-69
2021/03/27 01:14:14;;;;;;;8.60;6.93;;;8.60;93.50;16.40;99649.00;;;;5001320;28;20190;-70
2021/03/27 01:16:45;;;;;;;9.80;7.85;;;8.60;93.50;16.40;99661.00;;;;5000778;28;20240;-69
2021/03/27 01:19:16;;;;;;;9.77;7.38;;;8.60;93.50;16.40;99654.00;;;;5000633;28;20588;-69
2021/03/27 01:21:42;;;;;;;9.95;7.70;;;8.60;93.50;16.60;99658.00;;;;5000336;28;20819;-69
2021/03/27 01:24:13;;;;;;;11.27;7.75;;;8.60;93.50;16.40;99652.00;;;;4999425;28;20224;-69
2021/03/27 01:27:12;;;;;;;10.52;7.55;;;8.60;93.50;16.60;99658.00;;;;5000898;28;20194;-69
2021/03/27 01:30:16;;;;;;;9.80;7.05;;;8.60;93.50;16.50;99659.00;;;;5033334;28;20711;-69
2021/03/27 01:33:08;;;;;;;9.30;7.50;;;8.60;93.50;16.40;99657.00;;;;5018899;28;20237;-69
2021/03/27 01:35:42;;;;;;;9.80;7.90;;;8.60;93.50;16.40;99649.00;;;;5033252;28;20201;-69
2021/03/27 01:38:19;;;;;;;9.05;7.60;;;8.60;93.90;16.50;99652.00;;;;5000174;28;20272;-69
2021/03/27 01:40:50;;;;;;;9.65;7.60;;;8.60;93.50;16.30;99656.00;;;;5032663;28;20599;-69
2021/03/27 01:43:24;;;;;;;8.75;7.03;;;8.60;93.50;16.30;99658.00;;;;5050112;28;20718;-69
2021/03/27 01:46:25;;;;;;;10.48;8.25;;;8.60;93.50;16.40;99658.00;;;;4999551;28;20209;-70
2021/03/27 01:49:09;;;;;;;8.27;6.70;;;8.60;93.50;16.30;99655.00;;;;5035716;28;20178;-69
2021/03/27 01:51:52;;;;;;;9.65;7.80;;;8.50;93.50;16.40;99664.00;;;;5031404;28;20194;-69
2021/03/27 01:54:40;;;;;;;10.43;7.82;;;8.60;93.50;16.40;99659.00;;;;5015509;28;20687;-69
2021/03/27 01:57:29;;;;;;;9.80;7.72;;;8.60;93.50;16.40;99657.00;;;;5007350;28;20226;-70
2021/03/27 02:00:02;;;;;;;8.35;7.28;;;8.60;93.50;16.30;99654.00;;;;5000975;28;20186;-69
2021/03/27 02:02:57;;;;;;;9.75;7.53;;;8.60;93.50;16.40;99653.00;;;;5016841;28;20209;-69
2021/03/27 02:05:31;;;;;;;10.45;7.93;;;8.50;93.40;16.50;99657.00;;;;5011778;28;20226;-69
2021/03/27 02:08:18;;;;;;;9.52;8.27;;;8.60;93.50;16.20;99651.00;;;;5032051;28;20316;-69
2021/03/27 02:11:24;;;;;;;9.27;7.45;;;8.50;93.40;16.30;99663.00;;;;5015729;28;20213;-69
2021/03/27 02:14:10;;;;;;;9.32;7.40;;;8.50;93.40;16.10;99650.00;;;;5049589;28;20663;-69
2021/03/27 02:16:42;;;;;;;9.50;7.80;;;8.50;93.40;16.10;99659.00;;;;5031948;28;20224;-69
2021/03/27 02:19:32;;;;;;;9.30;7.85;;;8.50;93.40;16.10;99650.00;;;;5015845;28;20658;-69
2021/03/27 02:22:27;;;;;;;10.73;8.43;;;8.50;93.30;16.20;99649.00;;;;5031715;28;20202;-70
2021/03/27 02:25:19;;;;;;;9.57;7.22;;;8.60;93.40;16.20;99656.00;;;;5005098;28;20182;-69
2021/03/27 02:28:13;;;;;;;10.20;7.55;;;8.50;93.40;16.10;99652.00;;;;5036583;28;20257;-70
2021/03/27 02:30:48;;;;;;;8.98;7.25;;;8.50;93.40;16.10;99659.00;;;;5037907;28;20240;-69
2021/03/27 02:33:39;;;;;;;9.50;8.02;;;8.50;93.40;16.10;99650.00;;;;5056029;28;20239;-69
2021/03/27 02:36:43;;;;;;;10.98;8.48;;;8.50;93.40;16.30;99652.00;;;;5045007;28;20235;-70
2021/03/27 02:39:14;;;;;;;9.65;7.50;;;8.50;93.40;16.30;99654.00;;;;5044905;28;20219;-69
2021/03/27 02:42:21;;;;;;;10.10;8.23;;;8.50;93.40;16.30;99658.00;;;;5054554;28;20674;-69
2021/03/27 02:45:01;;;;;;;10.52;8.00;;;8.50;93.40;16.20;99651.00;;;;5034027;28;20241;-69
2021/03/27 02:47:42;;;;;;;10.52;8.65;;;8.50;93.40;16.30;99660.00;;;;5041684;28;20720;-68
2021/03/27 02:50:32;;;;;;;9.90;7.97;;;8.50;93.40;16.40;99660.00;;;;5055567;28;20185;-68
2021/03/27 02:53:10;;;;;;;10.00;8.10;;;8.50;93.40;16.20;99665.00;;;;5040594;28;20238;-68
2021/03/27 02:56:04;;;;;;;8.75;7.40;;;8.50;93.40;16.30;99668.00;;;;5072423;28;20295;-68
2021/03/27 02:58:34;;;;;;;8.75;7.10;;;8.50;93.40;16.00;99665.00;;;;5024672;28;20196;-68
2021/03/27 03:01:23;;;;;;;10.95;8.35;;;8.50;93.30;16.00;99671.00;;;;5006811;28;20220;-68
2021/03/27 03:04:13;;;;;;;9.40;7.57;;;8.50;93.30;16.10;99668.00;;;;5024068;28;20670;-68
2021/03/27 03:07:00;;;;;;;10.15;8.40;;;8.50;93.40;16.30;99672.00;;;;5054950;28;20209;-69
2021/03/27 03:09:37;;;;;;;10.25;8.07;;;8.50;93.40;16.20;99668.00;;;;5072612;28;20658;-70
2021/03/27 03:12:15;;;;;;;9.48;8.10;;;8.50;93.40;16.00;99661.00;;;;5039589;28;20808;-69
2021/03/27 03:15:13;;;;;;;9.40;7.72;;;8.50;93.30;16.00;99664.00;;;;5055254;28;20650;-70
2021/03/27 03:18:56;;;;;;;9.70;7.65;;;8.50;93.30;15.50;99659.00;;;;5057498;28;20300;-70
2021/03/27 03:21:25;;;;;;;11.27;7.93;;;8.50;93.30;15.70;99662.00;;;;5047688;28;20699;-70
2021/03/27 03:24:37;;;;;;;9.25;7.45;;;8.50;93.30;15.60;99665.00;;;;5054715;28;20375;-70
2021/03/27 03:27:35;;;;;;;12.00;8.20;;;8.50;93.20;15.80;99663.00;;;;5040704;28;20213;-70
2021/03/27 03:30:28;;;;;;;10.48;7.78;;;8.50;93.30;15.80;99650.00;;;;5072412;28;20670;-70
2021/03/27 03:33:24;;;;;;;11.10;8.55;;;8.50;93.30;16.10;99662.00;;;;5038699;28;20231;-69
2021/03/27 03:36:09;;;;;;;11.40;8.57;;;8.40;93.20;15.90;99654.00;;;;5054835;28;20209;-69
2021/03/27 03:39:18;;;;;;;9.10;7.43;;;8.40;93.20;15.80;99658.00;;;;5055947;28;20242;-69
2021/03/27 03:42:20;;;;;;;12.18;8.20;;;8.40;93.20;15.70;99659.00;;;;5072226;28;20699;-70
2021/03/27 03:45:12;;;;;;;10.85;8.45;;;8.40;93.30;15.80;99654.00;;;;4990025;28;20191;-69
2021/03/27 03:48:40;;;;;;;10.50;8.50;;;8.40;93.20;15.70;99656.00;;;;5039723;28;20240;-69
2021/03/27 03:51:18;;;;;;;11.32;9.48;;;8.50;93.30;15.40;99653.00;;;;5016224;28;20209;-69
2021/03/27 03:54:22;;;;;;;12.18;9.02;;;8.40;93.20;15.80;99657.00;;;;5054772;28;20188;-69
2021/03/27 03:57:12;;;;;;;10.25;8.23;;;8.40;93.30;15.90;99663.00;;;;5054603;28;20231;-69
2021/03/27 04:00:16;;;;;;;10.48;8.20;;;8.40;93.20;16.10;99664.00;;;;5057101;28;20201;-69
2021/03/27 04:03:07;;;;;;;10.93;8.80;;;8.50;93.20;16.00;99656.00;;;;5029474;28;20568;-69
2021/03/27 04:06:02;;;;;;;10.95;8.07;;;8.40;93.20;16.00;99643.00;;;;5053860;28;20192;-69
2021/03/27 04:08:54;;;;;;;11.60;8.90;;;8.40;93.20;15.90;99646.00;;;;5032228;28;20205;-69
2021/03/27 04:11:56;;;;;;;10.43;8.18;;;8.40;93.20;16.00;99652.00;;;;5057853;28;20205;-69
2021/03/27 04:14:33;;;;;;;11.93;8.98;;;8.40;93.20;15.90;99659.00;;;;5056326;28;20654;-69
2021/03/27 04:17:15;;;;;;;11.40;8.85;;;8.40;93.20;15.90;99651.00;;;;5021995;28;20238;-69
2021/03/27 04:19:44;;;;;;;10.27;8.30;;;8.40;93.20;15.70;99656.00;;;;5052757;28;20185;-69
2021/03/27 04:22:23;;;;;;;10.35;9.10;;;8.40;93.20;15.80;99667.00;;;;5052758;28;20193;-69
2021/03/27 04:25:23;;;;;;;10.70;9.02;;;8.40;93.20;15.90;99673.00;;;;5023035;28;20693;-69
2021/03/27 04:28:35;;;;;;;13.75;9.68;;;8.40;93.20;15.90;99668.00;;;;5040138;28;20212;-69
2021/03/27 04:31:21;;;;;;;12.68;8.85;;;8.40;93.20;16.00;99672.00;;;;4994831;28;20321;-69
2021/03/27 04:34:06;;;;;;;12.50;9.10;;;8.40;93.20;15.80;99665.00;;;;5007126;28;20679;-70
2021/03/27 04:36:49;;;;;;;12.13;9.20;;;8.40;93.20;16.00;99670.00;;;;5039664;28;20260;-69
2021/03/27 04:39:43;;;;;;;12.65;8.93;;;8.40;93.20;16.00;99674.00;;;;5037152;28;20196;-69
2021/03/27 04:42:21;;;;;;;12.13;10.15;;;8.40;93.10;15.90;99682.00;;;;5017011;28;20209;-70
2021/03/27 04:45:10;;;;;;;13.57;9.90;;;8.40;93.10;16.00;99675.00;;;;5006126;28;20189;-69
2021/03/27 04:48:21;;;;;;;12.63;9.80;;;8.40;93.10;15.90;99689.00;;;;5036277;28;20630;-69
2021/03/27 04:51:27;;;;;;;13.63;10.27;;;8.40;93.10;16.00;99682.00;;;;5053734;28;20386;-69
2021/03/27 04:54:23;;;;;;;13.43;10.07;;;8.40;93.10;16.00;99682.00;;;;5071090;28;20177;-68
2021/03/27 04:57:23;;;;;;;11.80;9.55;;;8.40;93.10;16.00;99675.00;;;;5071164;28;20239;-68
2021/03/27 04:59:58;;;;;;;13.02;9.90;;;8.40;93.10;15.90;99663.00;;;;5057094;28;20178;-69
2021/03/27 05:02:41;;;;;;;13.00;9.90;;;8.40;93.10;16.00;99682.00;;;;5037307;28;20280;-70
2021/03/27 05:05:15;;;;;;;12.13;10.18;;;8.40;93.10;16.00;99684.00;;;;5037778;28;20182;-70
2021/03/27 05:07:57;;;;;;;13.00;10.38;;;8.40;93.10;16.00;99686.00;;;;5036951;28;20197;-69
2021/03/27 05:10:38;;;;;;;13.40;10.65;;;8.40;93.10;15.60;99686.00;;;;5036161;28;20182;-69
2021/03/27 05:13:32;;;;;;;13.45;11.05;;;8.40;93.10;15.90;99680.00;;;;5053001;28;20181;-69
2021/03/27 05:16:19;;;;;;;12.93;10.27;;;8.40;93.10;15.70;99686.00;;;;5055375;28;20259;-69
2021/03/27 05:19:01;;;;;;;13.20;10.80;;;8.40;93.10;15.80;99677.00;;;;5020041;28;20185;-70
2021/03/27 05:21:36;;;;;;;12.45;10.38;;;8.40;93.10;15.70;99681.00;;;;5021236;28;20205;-70
2021/03/27 05:24:53;;;;;;;13.25;10.02;;;8.30;93.10;15.60;99685.00;;;;5070293;28;20214;-70
2021/03/27 05:27:33;;;;;;;12.50;10.10;;;8.40;93.10;15.60;99686.00;;;;5070519;28;20609;-69
2021/03/27 05:30:24;;;;;;;10.90;9.48;;;8.30;93.10;15.70;99684.00;;;;5069779;28;20548;-70
2021/03/27 05:33:17;;;;;;;12.10;9.40;;;8.30;93.00;15.60;99693.00;;;;5019964;28;20229;-68
2021/03/27 05:36:04;;;;;;;13.23;9.98;;;8.30;93.10;15.50;99680.00;;;;5055625;28;20201;-68
2021/03/27 05:38:50;;;;;;;13.75;10.55;;;8.30;93.10;15.60;99690.00;;;;5055332;28;20208;-68
2021/03/27 05:41:53;;;;;;;14.27;10.85;;;8.40;93.20;16.00;99691.00;;;;5036923;28;20246;-68
2021/03/27 05:44:46;;;;;;;11.95;9.88;;;8.40;93.30;16.00;99689.00;;;;5000564;28;20199;-69
2021/03/27 05:48:08;;;;;;;14.15;10.50;;;8.30;93.20;15.70;99690.00;;;;5020498;28;20236;-68
2021/03/27 05:51:05;;;;;;;13.73;11.05;;;8.40;93.30;15.50;99699.00;;;;5069066;28;20188;-68
2021/03/27 05:54:04;;;;;;;15.30;10.85;;;8.40;93.30;15.50;99702.00;;;;5036506;28;20219;-69
2021/03/27 05:56:39;;;;;;;13.93;10.25;;;8.40;93.30;15.70;99707.00;;;;5051218;28;20630;-68
2021/03/27 05:59:47;;;;;;;15.43;10.77;;;8.40;93.20;15.60;99712.00;;;;5069016;28;20173;-68
2021/03/27 06:02:28;;;;;;;12.93;10.52;;;8.30;93.20;15.70;99708.00;;;;5070139;28;20209;-68
2021/03/27 06:05:45;;;;;;;13.18;10.10;;;8.40;93.20;15.40;99708.00;;;;5069267;28;20260;-69
2021/03/27 06:08:27;;;;;;;11.98;9.75;;;8.40;93.20;15.60;99711.00;;;;5070275;28;20199;-69
2021/03/27 06:11:21;;;;;;;11.60;9.60;;;8.40;93.20;15.70;99713.00;;;;5051923;28;20582;-69
2021/03/27 06:14:35;;;;;;;13.50;10.32;;;8.40;93.10;15.80;99701.00;;;;5052362;28;20547;-69
2021/03/27 06:17:27;;;;;;;13.07;9.95;;;8.40;93.10;15.80;99711.00;;;;5046392;28;20726;-68
2021/03/27 06:20:46;;;;;;;12.45;10.40;;;8.40;93.00;15.40;99704.00;;;;5019393;28;20185;-68
2021/03/27 06:23:32;;;;;;;11.80;8.95;;;8.40;93.00;15.50;99694.00;;;;5057806;28;20573;-69
2021/03/27 06:26:11;;;;;;;10.77;8.98;;;8.40;93.00;15.50;99698.00;;;;5051337;28;20559;-69
2021/03/27 06:29:33;;;;;;;12.30;8.82;;;8.40;92.90;15.40;99699.00;;;;5051901;28;20181;-68
2021/03/27 06:32:05;;;;;;;11.35;8.88;;;8.40;92.80;15.50;99693.00;;;;5069750;28;20221;-68
2021/03/27 06:35:09;;;;;;;11.50;8.35;;;8.40;93.10;15.50;99694.00;;;;5050937;28;20741;-69
2021/03/27 06:37:50;;;;;;;11.68;9.10;;;8.40;92.90;15.60;99695.00;;;;5054827;28;20240;-68
2021/03/27 06:40:56;;;;;;;11.32;8.80;;;8.40;92.80;15.50;99698.00;;;;5051281;28;20347;-68
2021/03/27 06:44:04;;;;;;;12.38;10.18;;;8.40;92.70;15.40;99690.00;;;;5055924;28;20181;-69
2021/03/27 06:47:12;;;;;;;11.98;10.07;;;8.40;92.70;15.40;99687.00;;;;5069442;28;20255;-69
2021/03/27 06:50:04;;;;;;;12.60;9.32;;;8.40;92.80;15.40;99694.00;;;;5057754;28;20199;-68
2021/03/27 06:53:07;;;;;;;12.00;8.60;;;8.40;92.70;15.30;99701.00;;;;5052351;28;20699;-69
2021/03/27 06:55:59;;;;;;;14.55;10.43;;;8.40;92.70;15.40;99692.00;;;;5067274;28;21368;-69
2021/03/27 06:59:11;;;;;;;12.10;10.15;;;8.40;92.70;15.50;99695.00;;;;5053024;28;20862;-69
2021/03/27 07:02:23;;;;;;;15.25;10.75;;;8.40;92.70;15.70;99692.00;;;;5021499;28;20236;-69
2021/03/27 07:05:43;;;;;;;18.20;11.18;;;8.40;92.70;15.70;99693.00;;;;5068621;28;20185;-69
2021/03/27 07:09:14;;;;;;;14.95;10.88;;;8.40;92.70;15.90;99697.00;;;;5068145;28;20177;-69
2021/03/27 07:12:01;;;;;;;15.73;11.40;;;8.40;92.80;15.80;99700.00;;;;4952361;28;20221;-69
2021/03/27 07:15:07;;;;;;;14.95;10.93;;;8.40;92.80;15.80;99705.00;;;;5037342;28;20579;-69
2021/03/27 07:17:45;;;;;;;13.70;10.45;;;8.40;92.70;15.90;99713.00;;;;5072550;28;20221;-69
2021/03/27 07:21:03;;;;;;;13.02;10.55;;;8.40;92.90;15.60;99715.00;;;;5038510;28;20201;-69
2021/03/27 07:23:53;;;;;;;14.23;10.05;;;8.40;92.90;15.70;99713.00;;;;5042201;28;20189;-68
2021/03/27 07:26:47;;;;;;;12.27;10.48;;;8.40;93.00;15.80;99700.00;;;;5071950;28;20676;-69
2021/03/27 07:29:31;;;;;;;14.40;10.95;;;8.40;92.80;15.80;99696.00;;;;5072565;28;20181;-68
2021/03/27 07:32:50;;;;;;;12.65;10.05;;;8.40;92.90;15.80;99700.00;;;;5072650;28;20679;-69
2021/03/27 07:36:06;;;;;;;14.35;10.90;;;8.40;92.90;15.80;99709.00;;;;5072441;28;20177;-69
2021/03/27 07:39:08;;;;;;;13.43;10.60;;;8.40;92.90;15.90;99717.00;;;;5073229;28;20188;-69
2021/03/27 07:41:54;;;;;;;13.13;10.10;;;8.40;92.90;15.90;99715.00;;;;5027195;28;20227;-69
2021/03/27 07:44:38;;;;;;;12.38;10.15;;;8.40;92.80;15.80;99717.00;;;;5038621;28;20181;-69
2021/03/27 07:47:17;;;;;;;14.27;11.50;;;8.40;92.80;15.70;99717.00;;;;5056688;28;20257;-69
2021/03/27 07:50:20;;;;;;;11.52;9.65;;;8.40;92.90;15.70;99731.00;;;;5038509;28;20181;-69
2021/03/27 07:53:12;;;;;;;13.40;10.27;;;8.40;92.80;15.80;99717.00;;;;5054699;28;20612;-69
2021/03/27 07:56:25;;;;;;;12.35;10.00;;;8.40;92.80;15.80;99730.00;;;;5038997;28;20217;-70
2021/03/27 07:59:24;;;;;;;12.52;10.00;;;8.40;92.70;15.70;99725.00;;;;5072100;28;20177;-69
2021/03/27 08:02:35;;;;;;;13.63;10.32;;;8.40;92.70;15.70;99723.00;;;;5072201;28;20280;-69
2021/03/27 08:05:38;;;;;;;12.73;10.57;;;8.40;92.70;15.80;99742.00;;;;5053362;28;20652;-69
2021/03/27 08:08:41;;;;;;;13.20;11.02;;;8.40;92.70;15.80;99735.00;;;;5072319;28;20347;-68
2021/03/27 08:11:25;;;;;;;11.55;10.20;;;8.40;92.70;15.90;99737.00;;;;5056592;28;20204;-69
2021/03/27 08:14:12;;;;;;;13.65;10.82;;;8.40;92.70;15.90;99735.00;;;;5055578;28;20202;-68
2021/03/27 08:16:54;;;;;;;11.75;9.82;;;8.40;92.70;15.90;99729.00;;;;5071834;28;20267;-69
2021/03/27 08:19:37;;;;;;;13.63;10.20;;;8.40;92.70;15.80;99738.00;;;;5039815;28;20272;-68
2021/03/27 08:22:33;;;;;;;13.30;11.00;;;8.40;92.70;15.90;99746.00;;;;5053217;28;20205;-69
2021/03/27 08:25:02;;;;;;;13.60;10.77;;;8.50;92.80;15.70;99750.00;;;;5036013;28;20189;-68
2021/03/27 08:27:58;;;;;;;12.40;10.05;;;8.40;92.70;15.80;99746.00;;;;5071721;28;20208;-68
2021/03/27 08:30:51;;;;;;;12.35;9.80;;;8.50;92.70;15.70;99743.00;;;;5056894;28;20173;-68
2021/03/27 08:33:20;;;;;;;11.77;9.80;;;8.50;92.70;15.80;99741.00;;;;5051922;28;20247;-68
2021/03/27 08:36:15;;;;;;;11.45;9.65;;;8.40;92.70;15.80;99743.00;;;;5070995;28;20588;-68
2021/03/27 08:39:09;;;;;;;12.35;10.07;;;8.40;92.70;15.90;99742.00;;;;5052931;28;20174;-69
2021/03/27 08:41:50;;;;;;;13.50;10.20;;;8.40;92.70;16.00;99748.00;;;;5053130;28;20201;-69
2021/03/27 08:44:42;;;;;;;12.27;9.75;;;8.40;92.80;15.90;99758.00;;;;5066792;28;20197;-68
2021/03/27 08:47:38;;;;;;;14.18;10.93;;;8.50;92.80;15.80;99752.00;;;;5069063;28;20209;-68
2021/03/27 08:50:47;;;;;;;13.30;10.57;;;8.50;92.80;15.70;99750.00;;;;5070828;28;20246;-68
2021/03/27 08:53:36;;;;;;;11.88;9.50;;;8.50;92.80;15.70;99765.00;;;;5022732;28;20354;-68
2021/03/27 08:56:26;;;;;;;12.55;10.48;;;8.50;92.80;15.70;99757.00;;;;5052852;28;20224;-69
2021/03/27 08:59:38;;;;;;;13.00;10.80;;;8.50;92.80;15.70;99770.00;;;;5069770;28;20292;-69
2021/03/27 09:02:59;;;;;;;10.55;8.93;;;8.50;92.80;15.70;99774.00;;;;5069046;28;20201;-69
2021/03/27 09:05:33;;;;;;;11.68;8.43;;;8.50;92.80;15.80;99766.00;;;;5049954;28;20292;-69
2021/03/27 09:08:27;;;;;;;12.65;10.07;;;8.50;92.80;15.80;99763.00;;;;5031678;28;20266;-68
2021/03/27 09:11:00;;;;;;;10.95;9.38;;;8.50;92.80;16.00;99774.00;;;;5050690;28;20255;-68
2021/03/27 09:14:09;;;;;;;10.88;9.32;;;8.50;92.80;16.00;99773.00;;;;5031426;28;20193;-69
2021/03/27 09:17:21;;;;;;;10.30;9.00;;;8.50;92.80;15.90;99773.00;;;;5035230;28;20221;-69
2021/03/27 09:20:06;;;;;;;11.90;9.18;;;8.50;92.80;16.00;99780.00;;;;5034648;28;20194;-67
2021/03/27 09:23:06;;;;;;;9.90;8.55;;;8.50;92.80;15.90;99773.00;;;;5031715;28;20217;-68
2021/03/27 09:26:13;;;;;;;11.35;8.80;;;8.50;92.80;15.80;99777.00;;;;4994562;28;20190;-68
2021/03/27 09:29:46;;;;;;;10.98;9.10;;;8.50;92.80;15.90;99781.00;;;;5049203;28;20471;-68
2021/03/27 09:32:44;;;;;;;11.00;8.50;;;8.60;92.90;15.90;99781.00;;;;5036073;28;20251;-69
2021/03/27 09:35:37;;;;;;;11.40;9.30;;;8.50;92.80;16.00;99788.00;;;;5000777;28;20190;-68
2021/03/27 09:38:49;;;;;;;11.02;9.65;;;8.50;92.80;15.90;99799.00;;;;5031940;28;20197;-68
2021/03/27 09:41:45;;;;;;;11.75;9.80;;;8.50;92.80;16.00;99796.00;;;;5006650;28;20217;-68
2021/03/27 09:44:57;;;;;;;10.00;8.63;;;8.60;92.90;16.00;99793.00;;;;5047845;28;20669;-68
2021/03/27 09:47:30;;;;;;;11.10;8.80;;;8.60;92.90;16.00;99795.00;;;;5049934;28;20665;-69
2021/03/27 09:49:58;;;;;;;11.18;9.20;;;8.60;92.90;15.90;99798.00;;;;5048011;28;20483;-69
2021/03/27 09:52:45;;;;;;;12.68;9.82;;;8.60;92.90;16.10;99791.00;;;;5048081;28;20206;-69
2021/03/27 09:55:42;;;;;;;11.55;9.85;;;8.60;93.20;16.00;99788.00;;;;5049518;28;20182;-69
2021/03/27 09:58:11;;;;;;;9.60;8.38;;;8.60;92.90;16.10;99786.00;;;;5032417;28;20260;-69
2021/03/27 10:01:03;;;;;;;11.40;9.88;;;8.60;92.90;16.10;99799.00;;;;5050318;28;20178;-68
2021/03/27 10:04:12;;;;;;;11.18;9.30;;;8.60;92.90;16.20;99789.00;;;;5049538;28;20174;-68
2021/03/27 10:07:08;;;;;;;9.75;8.75;;;8.60;92.90;16.10;99790.00;;;;5039164;28;20596;-68
2021/03/27 10:10:04;;;;;;;12.43;9.68;;;8.60;93.00;16.00;99801.00;;;;5032093;28;20186;-68
2021/03/27 10:12:55;;;;;;;10.35;8.80;;;8.60;92.90;16.00;99799.00;;;;5031889;28;20217;-68
2021/03/27 10:15:25;;;;;;;11.57;8.95;;;8.60;92.90;16.10;99795.00;;;;5048906;28;20189;-68
2021/03/27 10:18:21;;;;;;;10.82;8.77;;;8.70;93.00;15.90;99804.00;;;;5015438;28;20273;-68
2021/03/27 10:20:50;;;;;;;10.55;9.38;;;8.60;93.00;15.90;99802.00;;;;5032903;28;20252;-68
2021/03/27 10:23:36;;;;;;;11.43;8.60;;;8.60;93.00;16.00;99809.00;;;;5048140;28;20549;-68
2021/03/27 10:26:18;;;;;;;10.63;8.70;;;8.70;93.10;16.00;99823.00;;;;5047796;28;20241;-68
2021/03/27 10:29:34;;;;;;;11.07;9.25;;;8.60;93.00;16.00;99826.00;;;;5049587;28;20186;-68
2021/03/27 10:32:14;;;;;;;12.27;9.32;;;8.70;93.00;16.00;99831.00;;;;5036468;28;20234;-68
2021/03/27 10:34:40;;;;;;;11.65;8.98;;;8.70;93.00;16.10;99826.00;;;;5031758;28;20182;-68
2021/03/27 10:37:21;;;;;;;11.77;9.30;;;8.70;93.00;16.00;99829.00;;;;5031957;28;20314;-68
2021/03/27 10:40:34;;;;;;;11.52;9.35;;;8.70;93.10;15.90;99826.00;;;;5031226;28;20174;-68
2021/03/27 10:43:42;;;;;;;11.70;9.15;;;8.70;93.10;15.90;99824.00;;;;5048064;28;20181;-68
2021/03/27 10:46:19;;;;;;;10.27;9.18;;;8.70;93.10;16.20;99822.00;;;;5048724;28;20197;-68
2021/03/27 10:49:06;;;;;;;10.55;8.60;;;8.70;93.10;16.10;99829.00;;;;5050772;28;20204;-68
2021/03/27 10:51:46;;;;;;;9.70;8.05;;;8.70;93.10;16.00;99821.00;;;;5053433;28;20198;-68
2021/03/27 10:54:27;;;;;;;11.20;9.10;;;8.70;93.10;15.90;99826.00;;;;5051806;28;20173;-68
2021/03/27 10:57:36;;;;;;;10.40;8.15;;;8.70;93.10;16.10;99825.00;;;;5053511;28;20680;-68
2021/03/27 11:00:32;;;;;;;11.32;9.23;;;8.70;93.20;16.50;99833.00;;;;5035472;28;20209;-69
2021/03/27 11:03:33;;;;;;;13.45;10.20;;;8.80;93.30;16.50;99833.00;;;;5053409;28;20272;-70
2021/03/27 11:06:54;;;;;;;11.63;10.23;;;8.80;93.30;16.50;99841.00;;;;5037508;28;20214;-69
2021/03/27 11:10:12;;;;;;;14.32;10.98;;;8.80;93.30;16.20;99843.00;;;;5016692;28;20603;-70
2021/03/27 11:13:34;;;;;;;13.55;11.30;;;8.80;93.30;16.30;99848.00;;;;5053149;28;20239;-69
2021/03/27 11:16:14;;;;;;;13.85;11.05;;;8.80;93.30;16.30;99847.00;;;;5052879;28;20218;-69
2021/03/27 11:19:08;;;;;;;13.38;10.93;;;8.80;93.30;16.40;99843.00;;;;5053199;28;20213;-70
2021/03/27 11:21:36;;;;;;;12.88;10.70;;;8.80;93.30;16.10;99844.00;;;;5051279;28;20210;-69
2021/03/27 11:24:35;;;;;;;11.63;10.00;;;8.80;93.30;16.40;99849.00;;;;5051313;28;20694;-70
2021/03/27 11:27:39;;;;;;;10.63;9.00;;;8.90;93.40;16.50;99849.00;;;;5036189;28;20206;-69
2021/03/27 11:30:33;;;;;;;11.90;10.00;;;8.80;93.30;16.40;99853.00;;;;5034595;28;20182;-70
2021/03/27 11:33:30;;;;;;;10.65;9.38;;;8.90;93.40;16.50;99856.00;;;;5035697;28;20299;-69
2021/03/27 11:36:23;;;;;;;12.52;10.52;;;8.90;93.40;16.60;99866.00;;;;5034207;28;20209;-70
2021/03/27 11:39:21;;;;;;;13.00;10.10;;;8.90;93.40;16.60;99854.00;;;;5024632;28;20186;-70
2021/03/27 11:42:28;;;;;;;10.65;8.65;;;8.90;93.40;16.60;99865.00;;;;5037094;28;20214;-70
2021/03/27 11:45:12;;;;;;;12.40;9.07;;;8.90;93.40;16.60;99860.00;;;;5034301;28;20192;-70
2021/03/27 11:47:52;;;;;;;11.50;9.55;;;8.90;93.40;16.60;99873.00;;;;5034569;28;20429;-69
2021/03/27 11:51:02;;;;;;;10.38;9.20;;;8.90;93.40;16.50;99860.00;;;;5051110;28;20185;-70
2021/03/27 11:54:02;;;;;;;12.15;9.65;;;9.00;93.50;16.60;99875.00;;;;5051032;28;20213;-70
2021/03/27 11:56:47;;;;;;;11.82;9.70;;;9.00;93.50;16.50;99880.00;;;;5036346;28;20621;-69
2021/03/27 12:00:47;;;;;;;10.07;8.43;;;9.00;93.50;16.60;99877.00;;;;5034292;28;20290;-70
2021/03/27 12:02:37;;;;;;;11.55;9.43;;;9.00;93.60;16.70;99879.00;;;;5051158;28;20223;-70
2021/03/27 12:05:57;;;;;;;10.40;8.85;;;9.00;93.50;16.70;99891.00;;;;5051915;28;20178;-70
2021/03/27 12:08:49;;;;;;;12.02;9.20;;;9.00;93.60;16.60;99889.00;;;;5011073;28;20193;-70
2021/03/27 12:11:52;;;;;;;11.05;8.93;;;9.00;93.60;16.70;99890.00;;;;5053418;28;20572;-70
2021/03/27 12:14:27;;;;;;;9.95;8.20;;;9.10;93.60;16.80;99886.00;;;;5051554;28;20512;-70
2021/03/27 12:17:46;;;;;;;11.60;8.40;;;9.10;93.70;16.80;99875.00;;;;5017754;28;20642;-70
2021/03/27 12:20:33;;;;;;;10.32;9.07;;;9.10;93.70;16.90;99882.00;;;;5002031;28;20198;-70
2021/03/27 12:23:31;;;;;;;11.07;9.30;;;9.10;93.70;16.90;99876.00;;;;5035487;28;20181;-70
2021/03/27 12:26:24;;;;;;;10.20;8.93;;;9.10;93.70;17.00;99884.00;;;;5049077;28;20246;-70
2021/03/27 12:29:29;;;;;;;10.18;7.78;;;9.20;93.70;17.30;99886.00;;;;5020181;28;20194;-69
2021/03/27 12:32:04;;;;;;;10.27;8.70;;;9.20;93.80;17.00;99888.00;;;;5032879;28;20771;-74
2021/03/27 12:34:38;;;;;;;12.38;9.45;;;9.20;93.90;17.10;99889.00;;;;5051528;28;20660;-70
2021/03/27 12:37:22;;;;;;;11.77;8.40;;;9.20;93.90;17.10;99889.00;;;;5017349;28;20299;-69
2021/03/27 12:40:24;;;;;;;10.20;8.63;;;9.20;93.80;17.00;99899.00;;;;5051160;28;20186;-70
2021/03/27 12:43:05;;;;;;;10.35;8.60;;;9.20;93.80;17.00;99898.00;;;;5033279;28;20593;-69